Ninkasi — ZGAA5 — position and weather

sailwx.info

Track history (hours):
 
Tides and Currents Weather Stations Pressure Air Temp Water Temp Dewpoint Dewpoint Depression Visibility Wind Speed Wind Dir Waves Ship Positions

Ninkasi

Last reported at 2018-Jun-25 00:27 UTC. Time now 2018-Jun-25 00:42 UTC.
Position N 40°32' E 014°14'.

Length 43 m; draft 2.7 m.

Type: Pleasure craft. MMSI: 319030900.

Date/timePositionNaut miles runAvg speedWind from/ knotsBaromVisibWave heightAir tempDewpointWater temp
2018-Jun-25 00:27N 40°32' E 014°14'0 0.0
2018-Jun-24 23:53N 40°32' E 014°14'0 0.0
2018-Jun-24 23:13N 40°32' E 014°14'0 0.0
2018-Jun-24 22:29N 40°32' E 014°14'0 0.0
2018-Jun-24 21:55N 40°32' E 014°14'0 0.0
2018-Jun-24 21:10N 40°32' E 014°14'0 0.0
2018-Jun-24 20:57N 40°32' E 014°14'0 0.0
2018-Jun-24 20:23N 40°32' E 014°14'0 0.1
2018-Jun-24 20:00N 40°32' E 014°14'5 7.4
2018-Jun-24 19:23N 40°32' E 014°08'411.0
2018-Jun-24 19:00N 40°33' E 014°03'611.3
2018-Jun-24 18:30N 40°34' E 013°56'611.5
2018-Jun-24 18:00N 40°36' E 013°49'611.4
2018-Jun-24 17:30N 40°37' E 013°42'  
2018-Jun-17 17:46N 41°16' E 012°44'4510.8
2018-Jun-17 13:34N 40°55' E 013°38'211.0
2018-Jun-17 13:22N 40°54' E 013°40'410.9
2018-Jun-17 12:58N 40°51' E 013°45'510.1
2018-Jun-17 12:30N 40°49' E 013°50'5 9.6
2018-Jun-17 12:00N 40°47' E 013°56'4 8.4
2018-Jun-17 11:30N 40°44' E 013°60'5 9.8
2018-Jun-17 11:00N 40°43' E 014°06'511.0
2018-Jun-17 10:30N 40°43' E 014°13'611.1
2018-Jun-17 10:00N 40°43' E 014°21'511.0
2018-Jun-17 09:30N 40°43' E 014°28'0 0.4
2018-Jun-17 08:59N 40°43' E 014°28'0 0.0
2018-Jun-17 08:30N 40°43' E 014°28'0 0.0
2018-Jun-17 06:47N 40°43' E 014°28'0 0.0
2018-Jun-17 06:21N 40°43' E 014°28'0 0.0
2018-Jun-17 05:22N 40°43' E 014°28'0 0.0
2018-Jun-17 05:00N 40°43' E 014°28'0 0.0
2018-Jun-17 04:30N 40°43' E 014°28'0 0.0
2018-Jun-17 04:00N 40°43' E 014°28'0 0.1
2018-Jun-17 03:25N 40°43' E 014°28'3 7.5
2018-Jun-17 03:00N 40°42' E 014°24'510.9
2018-Jun-17 02:30N 40°39' E 014°18'5 9.7
2018-Jun-17 02:00N 40°34' E 014°18'510.0
2018-Jun-17 01:30N 40°33' E 014°24'5 9.3
2018-Jun-17 01:00N 40°37' E 014°29'0 0.8
2018-Jun-17 00:30N 40°37' E 014°28'0 0.0
2018-Jun-17 00:00N 40°37' E 014°28'0 0.0
2018-Jun-16 23:30N 40°37' E 014°28'0 0.0
2018-Jun-16 23:00N 40°37' E 014°28'0 0.0
2018-Jun-16 22:30N 40°37' E 014°28'0 0.0
2018-Jun-16 22:00N 40°37' E 014°28'0 0.0
2018-Jun-16 21:28N 40°37' E 014°28'0 0.0
2018-Jun-16 20:57N 40°37' E 014°28'0 0.0
2018-Jun-16 20:31N 40°37' E 014°28'0 0.0
2018-Jun-16 20:00N 40°37' E 014°28'0 0.0
2018-Jun-16 19:30N 40°37' E 014°28'0 0.1
2018-Jun-16 19:00N 40°37' E 014°29'0 0.0
2018-Jun-16 18:30N 40°37' E 014°28'1 1.8
2018-Jun-16 18:00N 40°37' E 014°30'0 0.2
2018-Jun-16 17:31N 40°37' E 014°30'0 0.0
2018-Jun-16 17:00N 40°37' E 014°30'0 0.1
2018-Jun-16 16:30N 40°37' E 014°30'0 0.1
2018-Jun-16 16:01N 40°37' E 014°30'0 0.0
2018-Jun-16 15:30N 40°37' E 014°30'0 0.0
2018-Jun-16 15:00N 40°37' E 014°30'0 0.0
2018-Jun-16 14:30N 40°37' E 014°30'0 0.1
2018-Jun-16 14:00N 40°37' E 014°30'0 0.0
2018-Jun-16 13:30N 40°37' E 014°30'0 0.0
2018-Jun-16 13:00N 40°37' E 014°30'0 0.0
2018-Jun-16 12:30N 40°37' E 014°30'0 0.0
2018-Jun-16 12:00N 40°37' E 014°30'0 0.0
2018-Jun-16 11:30N 40°37' E 014°30'0 0.0
2018-Jun-16 11:00N 40°37' E 014°30'0 0.0
2018-Jun-16 10:30N 40°37' E 014°30'0 0.0
2018-Jun-16 10:00N 40°37' E 014°30'0 0.0
2018-Jun-16 09:30N 40°37' E 014°30'0 0.0
2018-Jun-16 09:00N 40°37' E 014°30'0 0.0
2018-Jun-16 08:30N 40°37' E 014°30'0 0.0
2018-Jun-16 08:00N 40°37' E 014°30'0 0.0
2018-Jun-16 07:30N 40°37' E 014°30'0 0.0
2018-Jun-16 07:00N 40°37' E 014°30'0 0.0
2018-Jun-16 06:30N 40°37' E 014°30'0 0.0
2018-Jun-16 06:00N 40°37' E 014°30'0 0.0
2018-Jun-16 05:27N 40°37' E 014°30'0 0.0
2018-Jun-16 05:00N 40°37' E 014°30'0 0.0
2018-Jun-16 04:30N 40°37' E 014°30'0 0.0
2018-Jun-16 04:00N 40°37' E 014°30'0 0.0
2018-Jun-16 03:29N 40°37' E 014°30'0 0.0
2018-Jun-16 03:00N 40°37' E 014°30'0 0.0
2018-Jun-16 02:28N 40°37' E 014°30'0 0.0
2018-Jun-16 01:56N 40°37' E 014°30'0 0.0
2018-Jun-16 01:30N 40°37' E 014°30'0 0.0
2018-Jun-16 01:00N 40°37' E 014°30'0 0.0
2018-Jun-16 00:30N 40°37' E 014°30'0 0.0
2018-Jun-16 00:00N 40°37' E 014°30'0 0.0
2018-Jun-15 23:30N 40°37' E 014°30'0 0.0
2018-Jun-15 23:00N 40°37' E 014°30'0 0.0
2018-Jun-15 22:30N 40°37' E 014°30'0 0.0
2018-Jun-15 21:59N 40°37' E 014°30'0 0.0
2018-Jun-15 21:30N 40°37' E 014°30'0 0.0
2018-Jun-15 20:58N 40°37' E 014°30'0 0.0
2018-Jun-15 20:30N 40°37' E 014°30'0 0.0
2018-Jun-15 20:00N 40°37' E 014°30'0 0.0
2018-Jun-15 19:30N 40°37' E 014°30'0 0.0
2018-Jun-15 19:00N 40°37' E 014°30'0 0.0
2018-Jun-15 18:30N 40°37' E 014°30'0 0.0
2018-Jun-15 18:00N 40°37' E 014°30'0 0.0
2018-Jun-15 17:30N 40°37' E 014°30'0 0.1
2018-Jun-15 17:01N 40°37' E 014°30'0 0.0
2018-Jun-15 16:31N 40°37' E 014°30'0 0.1
2018-Jun-15 16:00N 40°37' E 014°30'0 0.0
2018-Jun-15 15:30N 40°37' E 014°30'0 0.0
2018-Jun-15 15:00N 40°37' E 014°30'0 0.0
2018-Jun-15 14:30N 40°37' E 014°30'0 0.0
2018-Jun-15 14:00N 40°37' E 014°30'0 0.0
2018-Jun-15 13:30N 40°37' E 014°30'0 0.0
2018-Jun-15 13:00N 40°37' E 014°30'0 0.0
2018-Jun-15 12:30N 40°37' E 014°30'0 0.0
2018-Jun-15 12:00N 40°37' E 014°30'0 0.2
2018-Jun-15 11:31N 40°37' E 014°30'4 9.0
2018-Jun-15 11:00N 40°33' E 014°27'5 9.5
2018-Jun-15 10:30N 40°33' E 014°20'5 9.2
2018-Jun-15 10:00N 40°34' E 014°15'2 3.1
2018-Jun-15 09:23N 40°32' E 014°14'2 5.4
2018-Jun-15 09:00N 40°34' E 014°16'1 1.7
2018-Jun-15 08:30N 40°33' E 014°15'0 0.0
2018-Jun-15 08:00N 40°33' E 014°15'0 0.0
2018-Jun-15 07:30N 40°33' E 014°15'0 0.0
2018-Jun-15 07:00N 40°33' E 014°15'0 0.0
2018-Jun-15 06:30N 40°33' E 014°15'0 0.0
2018-Jun-15 06:00N 40°33' E 014°15'0 0.0
2018-Jun-15 05:30N 40°33' E 014°15'0 0.0
2018-Jun-15 05:00N 40°33' E 014°15'0 0.0
2018-Jun-15 04:30N 40°33' E 014°15'0 0.0
2018-Jun-15 04:00N 40°33' E 014°15'0 0.0
2018-Jun-15 03:30N 40°33' E 014°15'0 0.0
2018-Jun-15 03:00N 40°33' E 014°15'0 0.0
2018-Jun-15 02:30N 40°33' E 014°15'0 0.0
2018-Jun-15 02:00N 40°33' E 014°15'0 0.0
2018-Jun-15 01:30N 40°33' E 014°15'0 0.0
2018-Jun-15 01:00N 40°33' E 014°15'0 0.0
2018-Jun-15 00:30N 40°33' E 014°15'  
Track history (hours):
 
Tides and Currents Weather Stations Pressure Air Temp Water Temp Dewpoint Dewpoint Depression Visibility Wind Speed Wind Dir Waves Ship Positions

Ninkasi

Last reported at 2018-Jun-25 00:27 UTC. Time now 2018-Jun-25 00:42 UTC.
Position N 40°32' E 014°14'.

Length 43 m; draft 2.7 m.

Type: Pleasure craft. MMSI: 319030900.

Date/timePositionNaut miles runAvg speedWind from/ knotsBaromVisibWave heightAir tempDewpointWater temp
2018-Jun-25 00:27N 40°32' E 014°14'0 0.0
2018-Jun-24 23:53N 40°32' E 014°14'0 0.0
2018-Jun-24 23:13N 40°32' E 014°14'0 0.0
2018-Jun-24 22:29N 40°32' E 014°14'0 0.0
2018-Jun-24 21:55N 40°32' E 014°14'0 0.0
2018-Jun-24 21:10N 40°32' E 014°14'0 0.0
2018-Jun-24 20:57N 40°32' E 014°14'0 0.0
2018-Jun-24 20:23N 40°32' E 014°14'0 0.1
2018-Jun-24 20:00N 40°32' E 014°14'5 7.4
2018-Jun-24 19:23N 40°32' E 014°08'411.0
2018-Jun-24 19:00N 40°33' E 014°03'611.3
2018-Jun-24 18:30N 40°34' E 013°56'611.5
2018-Jun-24 18:00N 40°36' E 013°49'611.4
2018-Jun-24 17:30N 40°37' E 013°42'  
2018-Jun-17 17:46N 41°16' E 012°44'4510.8
2018-Jun-17 13:34N 40°55' E 013°38'211.0
2018-Jun-17 13:22N 40°54' E 013°40'410.9
2018-Jun-17 12:58N 40°51' E 013°45'510.1
2018-Jun-17 12:30N 40°49' E 013°50'5 9.6
2018-Jun-17 12:00N 40°47' E 013°56'4 8.4
2018-Jun-17 11:30N 40°44' E 013°60'5 9.8
2018-Jun-17 11:00N 40°43' E 014°06'511.0
2018-Jun-17 10:30N 40°43' E 014°13'611.1
2018-Jun-17 10:00N 40°43' E 014°21'511.0
2018-Jun-17 09:30N 40°43' E 014°28'0 0.4
2018-Jun-17 08:59N 40°43' E 014°28'0 0.0
2018-Jun-17 08:30N 40°43' E 014°28'0 0.0
2018-Jun-17 06:47N 40°43' E 014°28'0 0.0
2018-Jun-17 06:21N 40°43' E 014°28'0 0.0
2018-Jun-17 05:22N 40°43' E 014°28'0 0.0
2018-Jun-17 05:00N 40°43' E 014°28'0 0.0
2018-Jun-17 04:30N 40°43' E 014°28'0 0.0
2018-Jun-17 04:00N 40°43' E 014°28'0 0.1
2018-Jun-17 03:25N 40°43' E 014°28'3 7.5
2018-Jun-17 03:00N 40°42' E 014°24'510.9
2018-Jun-17 02:30N 40°39' E 014°18'5 9.7
2018-Jun-17 02:00N 40°34' E 014°18'510.0
2018-Jun-17 01:30N 40°33' E 014°24'5 9.3
2018-Jun-17 01:00N 40°37' E 014°29'0 0.8
2018-Jun-17 00:30N 40°37' E 014°28'0 0.0
2018-Jun-17 00:00N 40°37' E 014°28'0 0.0
2018-Jun-16 23:30N 40°37' E 014°28'0 0.0
2018-Jun-16 23:00N 40°37' E 014°28'0 0.0
2018-Jun-16 22:30N 40°37' E 014°28'0 0.0
2018-Jun-16 22:00N 40°37' E 014°28'0 0.0
2018-Jun-16 21:28N 40°37' E 014°28'0 0.0
2018-Jun-16 20:57N 40°37' E 014°28'0 0.0
2018-Jun-16 20:31N 40°37' E 014°28'0 0.0
2018-Jun-16 20:00N 40°37' E 014°28'0 0.0
2018-Jun-16 19:30N 40°37' E 014°28'0 0.1
2018-Jun-16 19:00N 40°37' E 014°29'0 0.0
2018-Jun-16 18:30N 40°37' E 014°28'1 1.8
2018-Jun-16 18:00N 40°37' E 014°30'0 0.2
2018-Jun-16 17:31N 40°37' E 014°30'0 0.0
2018-Jun-16 17:00N 40°37' E 014°30'0 0.1
2018-Jun-16 16:30N 40°37' E 014°30'0 0.1
2018-Jun-16 16:01N 40°37' E 014°30'0 0.0
2018-Jun-16 15:30N 40°37' E 014°30'0 0.0
2018-Jun-16 15:00N 40°37' E 014°30'0 0.0
2018-Jun-16 14:30N 40°37' E 014°30'0 0.1
2018-Jun-16 14:00N 40°37' E 014°30'0 0.0
2018-Jun-16 13:30N 40°37' E 014°30'0 0.0
2018-Jun-16 13:00N 40°37' E 014°30'0 0.0
2018-Jun-16 12:30N 40°37' E 014°30'0 0.0
2018-Jun-16 12:00N 40°37' E 014°30'0 0.0
2018-Jun-16 11:30N 40°37' E 014°30'0 0.0
2018-Jun-16 11:00N 40°37' E 014°30'0 0.0
2018-Jun-16 10:30N 40°37' E 014°30'0 0.0
2018-Jun-16 10:00N 40°37' E 014°30'0 0.0
2018-Jun-16 09:30N 40°37' E 014°30'0 0.0
2018-Jun-16 09:00N 40°37' E 014°30'0 0.0
2018-Jun-16 08:30N 40°37' E 014°30'0 0.0
2018-Jun-16 08:00N 40°37' E 014°30'0 0.0
2018-Jun-16 07:30N 40°37' E 014°30'0 0.0
2018-Jun-16 07:00N 40°37' E 014°30'0 0.0
2018-Jun-16 06:30N 40°37' E 014°30'0 0.0
2018-Jun-16 06:00N 40°37' E 014°30'0 0.0
2018-Jun-16 05:27N 40°37' E 014°30'0 0.0
2018-Jun-16 05:00N 40°37' E 014°30'0 0.0
2018-Jun-16 04:30N 40°37' E 014°30'0 0.0
2018-Jun-16 04:00N 40°37' E 014°30'0 0.0
2018-Jun-16 03:29N 40°37' E 014°30'0 0.0
2018-Jun-16 03:00N 40°37' E 014°30'0 0.0
2018-Jun-16 02:28N 40°37' E 014°30'0 0.0
2018-Jun-16 01:56N 40°37' E 014°30'0 0.0
2018-Jun-16 01:30N 40°37' E 014°30'0 0.0
2018-Jun-16 01:00N 40°37' E 014°30'0 0.0
2018-Jun-16 00:30N 40°37' E 014°30'0 0.0
2018-Jun-16 00:00N 40°37' E 014°30'0 0.0
2018-Jun-15 23:30N 40°37' E 014°30'0 0.0
2018-Jun-15 23:00N 40°37' E 014°30'0 0.0
2018-Jun-15 22:30N 40°37' E 014°30'0 0.0
2018-Jun-15 21:59N 40°37' E 014°30'0 0.0
2018-Jun-15 21:30N 40°37' E 014°30'0 0.0
2018-Jun-15 20:58N 40°37' E 014°30'0 0.0
2018-Jun-15 20:30N 40°37' E 014°30'0 0.0
2018-Jun-15 20:00N 40°37' E 014°30'0 0.0
2018-Jun-15 19:30N 40°37' E 014°30'0 0.0
2018-Jun-15 19:00N 40°37' E 014°30'0 0.0
2018-Jun-15 18:30N 40°37' E 014°30'0 0.0
2018-Jun-15 18:00N 40°37' E 014°30'0 0.0
2018-Jun-15 17:30N 40°37' E 014°30'0 0.1
2018-Jun-15 17:01N 40°37' E 014°30'0 0.0
2018-Jun-15 16:31N 40°37' E 014°30'0 0.1
2018-Jun-15 16:00N 40°37' E 014°30'0 0.0
2018-Jun-15 15:30N 40°37' E 014°30'0 0.0
2018-Jun-15 15:00N 40°37' E 014°30'0 0.0
2018-Jun-15 14:30N 40°37' E 014°30'0 0.0
2018-Jun-15 14:00N 40°37' E 014°30'0 0.0
2018-Jun-15 13:30N 40°37' E 014°30'0 0.0
2018-Jun-15 13:00N 40°37' E 014°30'0 0.0
2018-Jun-15 12:30N 40°37' E 014°30'0 0.0
2018-Jun-15 12:00N 40°37' E 014°30'0 0.2
2018-Jun-15 11:31N 40°37' E 014°30'4 9.0
2018-Jun-15 11:00N 40°33' E 014°27'5 9.5
2018-Jun-15 10:30N 40°33' E 014°20'5 9.2
2018-Jun-15 10:00N 40°34' E 014°15'2 3.1
2018-Jun-15 09:23N 40°32' E 014°14'2 5.4
2018-Jun-15 09:00N 40°34' E 014°16'1 1.7
2018-Jun-15 08:30N 40°33' E 014°15'0 0.0
2018-Jun-15 08:00N 40°33' E 014°15'0 0.0
2018-Jun-15 07:30N 40°33' E 014°15'0 0.0
2018-Jun-15 07:00N 40°33' E 014°15'0 0.0
2018-Jun-15 06:30N 40°33' E 014°15'0 0.0
2018-Jun-15 06:00N 40°33' E 014°15'0 0.0
2018-Jun-15 05:30N 40°33' E 014°15'0 0.0
2018-Jun-15 05:00N 40°33' E 014°15'0 0.0
2018-Jun-15 04:30N 40°33' E 014°15'0 0.0
2018-Jun-15 04:00N 40°33' E 014°15'0 0.0
2018-Jun-15 03:30N 40°33' E 014°15'0 0.0
2018-Jun-15 03:00N 40°33' E 014°15'0 0.0
2018-Jun-15 02:30N 40°33' E 014°15'0 0.0
2018-Jun-15 02:00N 40°33' E 014°15'0 0.0
2018-Jun-15 01:30N 40°33' E 014°15'0 0.0
2018-Jun-15 01:00N 40°33' E 014°15'0 0.0
2018-Jun-15 00:30N 40°33' E 014°15'  

Dump ship's entire track history